Center Berlin, New York
Current Conditions -  °F | °C
As of 10:52 PM on Wednesday 22 Oct 2014 (Local Time) from KAQW Reporting Station
Overcast Overcast  
Wind Chill: 47°   Ceiling: 2500
Heat Index: 49°   Visibility: 10mi
Dew Point: 46°   Wind: 5mph
Humidity: 90%   Direction: 270°W
Pressure: 29.89"   Gusts: NA
Location:  42.692°N, 73.3686°W
Report Text: KAQW 230252Z AUTO 27004KT 10SM OVC025 09/08 A2989 RMK AO2 RAE21 SLP125 P0001 60003 T00940078 58019
Loading
Personal Weather Stations






























Interactive Weather Map
Tropical Storm Tracking
New forecast layout! Learn more

10-Day Weather Forecast

Advertisements
Track Severe Weather on mobile